createdAt,value
2022-12-16T07:49:57.056Z,4.18
2022-12-16T07:51:49.504Z,4.14
2022-12-16T07:53:40.922Z,4.09
2022-12-16T07:55:31.690Z,4.01
2022-12-16T07:57:23.144Z,4.10
2022-12-16T07:59:14.711Z,4.19
2022-12-16T08:01:09.409Z,4.27
2022-12-16T08:03:01.394Z,4.35
2022-12-16T08:04:51.959Z,4.42
2022-12-16T08:06:42.634Z,4.56
2022-12-16T08:08:34.944Z,4.69
2022-12-16T08:10:26.228Z,4.82
2022-12-16T08:12:16.552Z,4.93
2022-12-16T08:14:07.227Z,5.05
2022-12-16T08:15:57.775Z,5.18
2022-12-16T08:17:48.369Z,5.39
2022-12-16T08:19:38.895Z,5.56
2022-12-16T08:21:29.530Z,5.70
2022-12-16T08:23:19.602Z,5.87
2022-12-16T08:25:11.995Z,6.04
2022-12-16T08:27:02.957Z,6.21
2022-12-16T08:28:53.792Z,6.39
2022-12-16T08:30:40.887Z,6.54
2022-12-16T08:32:31.663Z,6.76
2022-12-16T08:34:22.532Z,7.02
2022-12-16T08:36:16.515Z,7.24
2022-12-16T08:38:12.181Z,7.23
2022-12-16T08:40:33.810Z,7.39
2022-12-16T08:42:17.913Z,7.74
2022-12-16T08:44:08.711Z,8.11
2022-12-16T08:45:59.658Z,8.34
2022-12-16T08:47:50.471Z,8.43
2022-12-16T08:49:41.538Z,8.38
2022-12-16T08:51:32.228Z,8.34
2022-12-16T08:53:22.863Z,8.08
2022-12-16T08:55:13.699Z,7.82
2022-12-16T08:57:04.569Z,7.85
2022-12-16T08:58:56.456Z,7.65
2022-12-16T09:00:47.160Z,7.63
2022-12-16T09:02:38.046Z,7.63
2022-12-16T09:04:28.948Z,7.71
2022-12-16T09:06:19.655Z,7.81
2022-12-16T09:08:10.666Z,7.98
2022-12-16T09:10:01.126Z,7.90
2022-12-16T09:11:51.693Z,8.03
2022-12-16T09:13:42.656Z,8.25
2022-12-16T09:15:34.730Z,8.49
2022-12-16T09:17:25.399Z,8.60
2022-12-16T09:19:16.162Z,8.71
2022-12-16T09:21:07.151Z,8.77
2022-12-16T09:22:58.300Z,8.85
2022-12-16T09:24:48.726Z,8.93
2022-12-16T09:26:41.900Z,8.92
2022-12-16T09:28:32.687Z,9.10
2022-12-16T09:30:24.070Z,9.05
2022-12-16T09:32:15.866Z,8.61
2022-12-16T09:34:06.675Z,8.40
2022-12-16T09:35:57.117Z,8.34
2022-12-16T09:37:48.774Z,8.30
2022-12-16T09:39:39.564Z,8.39
2022-12-16T09:41:47.035Z,8.41
2022-12-16T09:44:02.430Z,8.68
2022-12-16T09:46:03.195Z,8.79
2022-12-16T09:48:03.755Z,8.87
2022-12-16T09:50:04.452Z,8.86
2022-12-16T09:51:58.720Z,8.93
2022-12-16T09:53:55.328Z,8.98
2022-12-16T09:55:51.194Z,8.98
2022-12-16T09:57:45.273Z,8.87
2022-12-16T09:59:44.190Z,8.83
2022-12-16T10:01:35.540Z,8.79
2022-12-16T10:03:43.673Z,8.94
2022-12-16T10:05:43.184Z,9.05
2022-12-16T10:07:38.036Z,8.98
2022-12-16T10:09:38.835Z,9.05
2022-12-16T10:11:39.969Z,9.23
2022-12-16T10:13:41.170Z,9.26
2022-12-16T10:15:45.501Z,9.33
2022-12-16T10:17:43.232Z,9.35
2022-12-16T10:19:54.003Z,9.39
2022-12-16T10:21:53.257Z,9.49
2022-12-16T10:23:48.985Z,9.47
2022-12-16T10:25:42.430Z,9.41
2022-12-16T10:27:40.902Z,9.54
2022-12-16T10:29:37.452Z,9.68
2022-12-16T10:31:33.971Z,9.82
2022-12-16T10:33:29.350Z,9.98
2022-12-16T10:35:35.733Z,10.10
2022-12-16T10:37:33.791Z,10.27
2022-12-16T10:39:37.955Z,10.38
2022-12-16T10:41:45.293Z,10.48
2022-12-16T10:43:41.766Z,10.58
2022-12-16T10:45:54.245Z,10.72
2022-12-16T10:47:45.878Z,10.86
2022-12-16T10:49:36.774Z,10.97
2022-12-16T10:51:32.562Z,11.07
2022-12-16T10:53:30.820Z,11.19
2022-12-16T10:55:31.698Z,11.28
2022-12-16T10:57:43.611Z,11.41
2022-12-16T10:59:34.164Z,11.54
2022-12-16T11:01:41.821Z,11.55
2022-12-16T11:03:38.317Z,11.66
2022-12-16T11:05:49.107Z,11.79
2022-12-16T11:07:49.121Z,11.79
2022-12-16T11:09:43.998Z,11.97
2022-12-16T11:11:57.548Z,12.05
2022-12-16T11:13:50.279Z,12.16
2022-12-16T11:15:44.289Z,12.27
2022-12-16T11:17:38.798Z,12.45
2022-12-16T11:19:38.638Z,12.60
2022-12-16T11:21:32.831Z,12.73
2022-12-16T11:23:39.731Z,12.82
2022-12-16T11:25:35.499Z,12.95
2022-12-16T11:27:33.528Z,13.07
2022-12-16T11:29:32.002Z,13.20
2022-12-16T11:31:26.443Z,13.29
2022-12-16T11:33:23.872Z,13.27
2022-12-16T11:35:18.196Z,13.34
2022-12-16T11:37:11.305Z,13.46
2022-12-16T11:39:06.196Z,13.52
2022-12-16T11:40:57.374Z,13.62
2022-12-16T11:42:51.729Z,13.71
2022-12-16T11:44:49.108Z,13.81
2022-12-16T11:46:44.867Z,13.89
2022-12-16T11:48:48.361Z,14.07
2022-12-16T11:50:41.189Z,14.19
2022-12-16T11:52:37.517Z,14.23
2022-12-16T11:54:36.081Z,14.39
2022-12-16T11:56:40.099Z,14.50
2022-12-16T11:58:37.723Z,14.61
2022-12-16T12:00:33.498Z,14.71
2022-12-16T12:02:32.946Z,14.79
2022-12-16T12:04:24.089Z,14.79
2022-12-16T12:06:22.616Z,14.84
2022-12-16T12:08:19.461Z,14.98
2022-12-16T12:10:18.675Z,15.08
2022-12-16T12:12:14.345Z,15.17
2022-12-16T12:14:17.089Z,15.15
2022-12-16T12:16:14.685Z,15.21
2022-12-16T12:18:11.483Z,15.30
2022-12-16T12:20:15.541Z,15.33
2022-12-16T12:22:11.910Z,15.37
2022-12-16T12:24:14.148Z,15.49
2022-12-16T12:26:12.765Z,15.61
2022-12-16T12:28:11.591Z,15.69
2022-12-16T12:30:16.860Z,15.68
2022-12-16T12:32:17.078Z,15.55
2022-12-16T12:34:20.766Z,15.57
2022-12-16T12:36:20.316Z,15.60
2022-12-16T12:38:17.264Z,15.64
2022-12-16T12:40:14.814Z,15.66
2022-12-16T12:42:25.511Z,15.65
2022-12-16T12:44:36.443Z,15.68
2022-12-16T12:46:43.247Z,15.70
2022-12-16T12:48:41.511Z,15.72
2022-12-16T12:50:39.329Z,15.74
2022-12-16T12:52:45.403Z,15.76
2022-12-16T12:54:46.109Z,15.76
2022-12-16T12:56:46.627Z,15.77
2022-12-16T12:58:40.137Z,15.76
2022-12-16T13:00:36.153Z,15.75
2022-12-16T13:02:32.231Z,15.69
2022-12-16T13:04:28.827Z,15.68
2022-12-16T13:06:20.969Z,15.63
2022-12-16T13:08:11.810Z,15.66
2022-12-16T13:10:03.601Z,15.69
2022-12-16T13:11:54.793Z,15.72
2022-12-16T13:13:55.589Z,15.75
2022-12-16T13:15:54.253Z,15.75
2022-12-16T13:17:44.902Z,15.75
2022-12-16T13:20:17.633Z,15.73
2022-12-16T13:22:09.510Z,15.71
2022-12-16T13:24:01.343Z,15.66
2022-12-16T13:26:03.517Z,15.60
2022-12-16T13:28:28.194Z,15.58
2022-12-16T13:30:36.004Z,15.52
2022-12-16T13:32:37.536Z,15.52
2022-12-16T13:34:42.399Z,15.52
2022-12-16T13:36:35.476Z,15.53
2022-12-16T13:38:40.140Z,15.52
2022-12-16T13:40:36.393Z,15.51
2022-12-16T13:43:00.483Z,15.49
2022-12-16T13:45:17.052Z,15.46
2022-12-16T13:47:11.049Z,15.44
2022-12-16T13:49:01.607Z,15.40
2022-12-16T13:50:58.053Z,15.39
2022-12-16T13:52:59.346Z,15.34
2022-12-16T13:54:55.561Z,15.24
2022-12-16T13:56:53.224Z,15.24
2022-12-16T13:58:54.076Z,15.19
2022-12-16T14:00:47.435Z,15.17
2022-12-16T14:02:49.914Z,15.12
2022-12-16T14:04:42.793Z,15.11
2022-12-16T14:06:37.420Z,15.04
2022-12-16T14:08:35.378Z,15.00
2022-12-16T14:10:42.613Z,14.96
2022-12-16T14:12:49.584Z,14.91
2022-12-16T14:14:54.739Z,14.84
2022-12-16T14:16:55.996Z,14.81
2022-12-16T14:18:59.741Z,14.67
2022-12-16T14:20:57.997Z,14.57
2022-12-16T14:23:06.418Z,14.57
2022-12-16T14:24:57.772Z,14.52
2022-12-16T14:26:51.627Z,14.48
2022-12-16T14:28:51.176Z,14.46
2022-12-16T14:30:44.099Z,14.39
2022-12-16T14:32:39.982Z,14.40
2022-12-16T14:34:37.007Z,14.26
2022-12-16T14:36:38.788Z,14.20
2022-12-16T14:38:40.611Z,14.10
2022-12-16T14:40:39.039Z,14.05
2022-12-16T14:42:43.068Z,14.00
2022-12-16T14:44:36.768Z,13.91
2022-12-16T14:46:43.579Z,13.79
2022-12-16T14:48:49.209Z,13.79
2022-12-16T14:50:46.404Z,13.72
2022-12-16T14:52:50.470Z,13.64
2022-12-16T14:54:44.801Z,13.61
2022-12-16T14:56:38.205Z,13.56
2022-12-16T14:58:31.238Z,13.49
2022-12-16T15:00:30.883Z,13.46
2022-12-16T15:02:34.737Z,13.32
2022-12-16T15:04:34.166Z,13.23
2022-12-16T15:06:38.547Z,13.16
2022-12-16T15:08:31.046Z,13.12
2022-12-16T15:10:23.113Z,13.06
2022-12-16T15:12:15.122Z,13.05
2022-12-16T15:14:09.325Z,12.94
2022-12-16T15:16:04.070Z,12.92
2022-12-16T15:18:03.203Z,12.84
2022-12-16T15:20:03.548Z,12.77
2022-12-16T15:21:56.432Z,12.73
2022-12-16T15:23:50.137Z,12.69
2022-12-16T15:25:43.642Z,12.63
2022-12-16T15:27:43.055Z,12.58
2022-12-16T15:29:47.812Z,12.54
2022-12-16T15:31:43.511Z,12.49
2022-12-16T15:33:36.771Z,12.45
2022-12-16T15:35:27.888Z,12.39
2022-12-16T15:37:19.954Z,12.33
2022-12-16T15:39:10.886Z,12.24
2022-12-16T15:41:09.839Z,12.20
2022-12-16T15:43:01.175Z,12.16
2022-12-16T15:44:52.013Z,12.13
2022-12-16T15:46:45.351Z,12.10
2022-12-16T15:48:40.243Z,12.04
2022-12-16T15:50:33.044Z,12.02
2022-12-16T15:52:55.224Z,11.99
2022-12-16T15:54:54.205Z,12.00
2022-12-16T15:56:46.676Z,11.98
2022-12-16T15:58:45.384Z,12.02
2022-12-16T16:00:40.835Z,11.94
2022-12-16T16:02:38.566Z,11.94
2022-12-16T16:04:40.261Z,11.90
2022-12-16T16:06:37.595Z,11.88
2022-12-16T16:08:29.844Z,11.76
2022-12-16T16:10:33.759Z,11.70
2022-12-16T16:12:24.395Z,11.71
2022-12-16T16:14:15.300Z,11.71
2022-12-16T16:16:06.611Z,11.65
2022-12-16T16:17:57.391Z,11.61
2022-12-16T16:19:48.150Z,11.59
2022-12-16T16:21:39.178Z,11.61
2022-12-16T16:23:31.861Z,11.61
2022-12-16T16:25:23.962Z,11.56
2022-12-16T16:27:18.070Z,11.53
2022-12-16T16:29:08.630Z,11.50
2022-12-16T16:30:59.657Z,11.52
2022-12-16T16:32:52.741Z,11.51
2022-12-16T16:34:43.255Z,11.49
2022-12-16T16:36:34.612Z,11.45
2022-12-16T16:38:25.274Z,11.47
2022-12-16T16:40:18.403Z,11.45
2022-12-16T16:42:09.156Z,11.44
2022-12-16T16:43:59.887Z,11.44
2022-12-16T16:45:50.610Z,11.44
2022-12-16T16:47:41.193Z,11.43
2022-12-16T16:49:37.426Z,11.37
2022-12-16T16:51:28.294Z,11.34
2022-12-16T16:53:19.128Z,11.28
2022-12-16T16:55:09.689Z,11.23
2022-12-16T16:57:01.607Z,11.17
2022-12-16T16:58:53.046Z,11.09
2022-12-16T17:00:43.750Z,11.07
2022-12-16T17:02:41.188Z,11.04
2022-12-16T17:04:32.548Z,11.04
2022-12-16T17:06:23.720Z,11.00
2022-12-16T17:08:15.508Z,10.98
2022-12-16T17:10:06.615Z,10.96
2022-12-16T17:11:58.116Z,10.97
2022-12-16T17:13:50.184Z,10.95
2022-12-16T17:15:39.652Z,10.87
2022-12-16T17:17:30.221Z,10.86
2022-12-16T17:19:24.808Z,10.79
2022-12-16T17:21:15.330Z,10.71
2022-12-16T17:23:05.872Z,10.66
2022-12-16T17:24:56.237Z,10.61
2022-12-16T17:26:47.047Z,10.58
2022-12-16T17:28:38.017Z,10.48
2022-12-16T17:30:34.803Z,10.50
2022-12-16T17:32:37.817Z,10.47
2022-12-16T17:34:28.521Z,10.43
2022-12-16T17:36:19.114Z,10.47
2022-12-16T17:38:10.278Z,10.38
2022-12-16T17:40:06.485Z,10.35
2022-12-16T17:41:57.128Z,10.38
2022-12-16T17:43:47.620Z,10.39
2022-12-16T17:45:39.635Z,10.37
2022-12-16T17:47:31.482Z,10.37
2022-12-16T17:49:22.049Z,10.38
2022-12-16T17:51:13.198Z,10.34
2022-12-16T17:53:12.338Z,10.32
2022-12-16T17:55:03.890Z,10.30
2022-12-16T17:56:54.897Z,10.29
2022-12-16T17:58:54.656Z,10.29
2022-12-16T18:00:46.622Z,10.19
2022-12-16T18:02:40.273Z,10.18
2022-12-16T18:04:30.816Z,10.11
2022-12-16T18:06:21.343Z,10.04
2022-12-16T18:08:11.703Z,10.02
2022-12-16T18:10:02.365Z,10.03
2022-12-16T18:11:55.408Z,10.04
2022-12-16T18:13:46.334Z,10.03
2022-12-16T18:15:36.770Z,9.94
2022-12-16T18:17:28.807Z,9.96
2022-12-16T18:19:19.167Z,9.94
2022-12-16T18:21:10.313Z,9.85
2022-12-16T18:23:00.991Z,9.85
2022-12-16T18:24:51.387Z,9.85
2022-12-16T18:26:42.008Z,9.85
2022-12-16T18:28:32.998Z,9.87
2022-12-16T18:30:24.936Z,9.86
2022-12-16T18:32:16.080Z,9.85
2022-12-16T18:34:07.965Z,9.87
2022-12-16T18:35:58.565Z,9.87
2022-12-16T18:37:49.783Z,9.80
2022-12-16T18:39:40.666Z,9.81
2022-12-16T18:41:34.408Z,9.78
2022-12-16T18:43:24.918Z,9.76
2022-12-16T18:45:15.627Z,9.79
2022-12-16T18:47:06.803Z,9.78
2022-12-16T18:48:57.826Z,9.72
2022-12-16T18:50:49.674Z,9.68
2022-12-16T18:52:40.657Z,9.60
2022-12-16T18:54:27.648Z,9.46
2022-12-16T18:56:19.606Z,9.43
2022-12-16T18:58:21.103Z,9.39
2022-12-16T19:00:18.251Z,9.43
2022-12-16T19:02:09.252Z,9.41
2022-12-16T19:03:59.846Z,9.42
2022-12-16T19:05:51.983Z,9.32
2022-12-16T19:07:42.752Z,9.33
2022-12-16T19:09:33.254Z,9.26
2022-12-16T19:11:23.714Z,9.20
2022-12-16T19:13:15.022Z,9.06
2022-12-16T19:15:05.826Z,9.09
2022-12-16T19:16:56.689Z,9.07
2022-12-16T19:18:47.317Z,9.06
2022-12-16T19:20:38.106Z,9.01
2022-12-16T19:22:30.385Z,8.97
2022-12-16T19:24:21.006Z,8.89
2022-12-16T19:26:15.274Z,8.80
2022-12-16T19:28:05.990Z,8.71
2022-12-16T19:29:56.662Z,8.68
2022-12-16T19:31:47.739Z,8.58
2022-12-16T19:33:38.281Z,8.47
2022-12-16T19:35:28.858Z,8.44
2022-12-16T19:37:19.504Z,8.43
2022-12-16T19:39:12.014Z,8.40
2022-12-16T19:41:09.616Z,8.45
2022-12-16T19:43:00.302Z,8.43
2022-12-16T19:44:50.985Z,8.39
2022-12-16T19:46:42.407Z,8.37
2022-12-16T19:48:33.579Z,8.33
2022-12-16T19:50:24.891Z,8.34
2022-12-16T19:52:15.458Z,8.34
2022-12-16T19:54:06.847Z,8.29
2022-12-16T19:55:58.920Z,8.24
2022-12-16T19:57:49.267Z,8.23
2022-12-16T19:59:39.922Z,8.22
2022-12-16T20:01:30.765Z,8.23
2022-12-16T20:03:21.440Z,8.21
2022-12-16T20:05:12.547Z,8.22
2022-12-16T20:07:03.118Z,8.21
2022-12-16T20:08:53.508Z,8.21
2022-12-16T20:10:45.536Z,8.14
2022-12-16T20:12:37.661Z,8.11
2022-12-16T20:14:28.149Z,8.14
2022-12-16T20:16:22.959Z,8.11
2022-12-16T20:18:25.071Z,8.12
2022-12-16T20:20:15.771Z,7.97
2022-12-16T20:24:16.884Z,7.94
2022-12-16T20:26:13.153Z,7.92
2022-12-16T20:28:05.222Z,7.93
2022-12-16T20:29:56.466Z,7.94
2022-12-16T20:31:47.861Z,7.87
2022-12-16T20:33:38.771Z,7.85
2022-12-16T20:35:29.340Z,7.81
2022-12-16T20:37:20.600Z,7.71
2022-12-16T20:39:11.527Z,7.69
2022-12-16T20:41:02.187Z,7.68
2022-12-16T20:42:53.512Z,7.68
2022-12-16T20:44:45.698Z,7.60
2022-12-16T20:46:35.992Z,7.63
2022-12-16T20:48:31.450Z,7.63
2022-12-16T20:50:22.267Z,7.55
2022-12-16T20:52:12.747Z,7.54
2022-12-16T20:54:06.022Z,7.61
2022-12-16T20:55:56.806Z,7.58
2022-12-16T20:57:47.406Z,7.58
2022-12-16T20:59:37.999Z,7.60
2022-12-16T21:01:30.063Z,7.54
2022-12-16T21:03:20.720Z,7.46
2022-12-16T21:05:26.172Z,7.38
2022-12-16T21:07:16.908Z,7.36
2022-12-16T21:09:07.254Z,7.33
2022-12-16T21:10:57.726Z,7.32
2022-12-16T21:12:48.143Z,7.31
2022-12-16T21:14:38.689Z,7.19
2022-12-16T21:14:42.341Z,7.95
2022-12-16T21:16:31.022Z,7.16
2022-12-16T21:18:21.609Z,7.17
2022-12-16T21:20:12.119Z,7.12
2022-12-16T21:22:02.938Z,7.05
2022-12-16T21:23:53.795Z,7.04
2022-12-16T21:26:01.698Z,7.00
2022-12-16T21:27:52.182Z,6.98
2022-12-16T21:29:42.660Z,6.90
2022-12-16T21:31:34.500Z,6.89
2022-12-16T21:33:25.103Z,6.90
2022-12-16T21:35:16.116Z,6.91
2022-12-16T21:37:08.160Z,6.92
2022-12-16T21:38:59.850Z,6.84
2022-12-16T21:40:50.744Z,6.86
2022-12-16T21:42:44.093Z,6.91
2022-12-16T21:44:34.676Z,6.89
2022-12-16T21:46:25.039Z,6.87
2022-12-16T21:48:17.207Z,6.80
2022-12-16T21:50:07.646Z,6.70
2022-12-16T21:51:58.855Z,6.64
2022-12-16T21:53:49.863Z,6.66
2022-12-16T21:55:40.230Z,6.65
2022-12-16T21:57:30.718Z,6.65
2022-12-16T21:59:21.902Z,6.57
2022-12-16T22:01:13.089Z,6.45
2022-12-16T22:03:03.974Z,6.37
2022-12-16T22:04:56.775Z,6.38
2022-12-16T22:06:49.027Z,6.38
2022-12-16T22:08:40.057Z,6.38
2022-12-16T22:10:31.002Z,6.35
2022-12-16T22:12:21.612Z,6.33
2022-12-16T22:14:12.041Z,6.32
2022-12-16T22:16:05.014Z,6.40
2022-12-16T22:17:58.670Z,6.41
2022-12-16T22:19:49.822Z,6.46
2022-12-16T22:21:41.962Z,6.44
2022-12-16T22:23:32.572Z,6.48
2022-12-16T22:25:24.074Z,6.47
2022-12-16T22:27:15.129Z,6.43
2022-12-16T22:29:06.022Z,6.34
2022-12-16T22:30:56.812Z,6.34
2022-12-16T22:32:47.397Z,6.35
2022-12-16T22:34:38.274Z,6.33
2022-12-16T22:36:31.067Z,6.34
2022-12-16T22:38:23.721Z,6.36
2022-12-16T22:40:14.121Z,6.37
2022-12-16T22:42:07.119Z,6.33
2022-12-16T22:43:57.642Z,6.32
2022-12-16T22:45:48.005Z,6.29
2022-12-16T22:47:39.119Z,6.28
2022-12-16T22:49:29.688Z,6.28
2022-12-16T22:51:20.310Z,6.21
2022-12-16T22:53:10.723Z,6.15
2022-12-16T22:55:03.091Z,6.16
2022-12-16T22:56:53.512Z,5.99
2022-12-16T22:58:47.045Z,5.99
2022-12-16T23:00:37.693Z,5.93
2022-12-16T23:02:28.456Z,5.95
2022-12-16T23:04:19.609Z,5.92
2022-12-16T23:06:10.382Z,5.86
2022-12-16T23:08:00.904Z,5.77
2022-12-16T23:09:53.243Z,5.75
2022-12-16T23:11:52.366Z,5.77
2022-12-16T23:13:44.550Z,5.77
2022-12-16T23:15:35.501Z,5.77
2022-12-16T23:17:26.250Z,5.81
2022-12-16T23:19:31.370Z,5.88
2022-12-16T23:21:21.162Z,5.84
2022-12-16T23:23:12.956Z,5.83
2022-12-16T23:25:03.382Z,5.74
2022-12-16T23:26:55.367Z,5.67
2022-12-16T23:28:46.875Z,5.67
2022-12-16T23:30:37.816Z,5.67
2022-12-16T23:32:27.724Z,5.69
2022-12-16T23:34:18.324Z,5.69
2022-12-16T23:36:09.217Z,5.65
2022-12-16T23:38:00.381Z,5.68
2022-12-16T23:39:51.247Z,5.68
2022-12-16T23:41:42.235Z,5.71
2022-12-16T23:43:34.034Z,5.73
2022-12-16T23:45:37.079Z,5.77
2022-12-16T23:47:39.298Z,5.80
2022-12-16T23:49:30.045Z,5.78
2022-12-16T23:51:20.608Z,5.72
2022-12-16T23:53:21.000Z,5.73
2022-12-16T23:55:11.617Z,5.64
2022-12-16T23:57:02.050Z,5.75
2022-12-16T23:58:53.992Z,5.97
